EFTP/TMP METAR and TAF weather

Enter ICAO airport designator
Station Type Date Time Source
EFTP METAR 2019/06/17 06:50 UTC NOAA

EFTP 170650Z 21005KT 170V250 CAVOK 20/13 Q1012


Station Type Date Time Source
EFTP Decoded METAR 2019/06/17 06:50 UTC NOAA

Tampere / Pirkkala, Finland (EFTP) 61-25N 023-35E 112M
Jun 17, 2019 - 02:50 AM EDT / 2019.06.17 0650 UTC
Wind: from the SSW (210 degrees) at 6 MPH (5 KT) (direction variable):0
Visibility: greater than 7 mile(s):0
Temperature: 68 F (20 C)
Dew Point: 55 F (13 C)
Relative Humidity: 64%
Pressure (altimeter): 29.88 in. Hg (1012 hPa)
ob: EFTP 170650Z 21005KT 170V250 CAVOK 20/13 Q1012
cycle: 7

Station Type Date Time Source
EFTP TAF 2019/06/17 06:45 UTC NOAA

TAF EFTP 170533Z 1706/1806 24006KT CAVOK
TEMPO 1710/1715 SCT050CB

Example: see airport list